createdAt,value
2018-05-24T00:01:19.855Z,97447.50
2018-05-24T00:03:47.438Z,97446.05
2018-05-24T00:06:15.587Z,97440.45
2018-05-24T00:08:43.108Z,97444.66
2018-05-24T00:11:10.668Z,97455.11
2018-05-24T00:13:38.197Z,97455.28
2018-05-24T00:16:06.189Z,97461.19
2018-05-24T00:18:33.712Z,97457.73
2018-05-24T00:21:01.293Z,97459.33
2018-05-24T00:23:28.816Z,97451.62
2018-05-24T00:25:56.344Z,97448.36
2018-05-24T00:28:23.905Z,97442.64
2018-05-24T00:30:51.431Z,97443.62
2018-05-24T00:33:19.001Z,97448.99
2018-05-24T00:35:46.528Z,97447.92
2018-05-24T00:38:14.093Z,97451.97
2018-05-24T00:40:41.626Z,97446.37
2018-05-24T00:43:09.149Z,97438.20
2018-05-24T00:45:36.697Z,97431.89
2018-05-24T00:48:04.230Z,97434.40
2018-05-24T00:50:31.784Z,97434.11
2018-05-24T00:52:59.315Z,97440.00
2018-05-24T00:55:38.836Z,97435.91
2018-05-24T00:58:06.433Z,97433.27
2018-05-24T01:00:33.952Z,97439.19
2018-05-24T01:03:01.514Z,97438.48
2018-05-24T01:05:29.046Z,97430.29
2018-05-24T01:07:56.612Z,97433.91
2018-05-24T01:10:24.141Z,97438.50
2018-05-24T01:12:51.948Z,97438.86
2018-05-24T01:15:19.468Z,97435.03
2018-05-24T01:17:46.989Z,97429.90
2018-05-24T01:20:14.572Z,97427.95
2018-05-24T01:22:42.100Z,97426.04
2018-05-24T01:25:09.641Z,97423.61
2018-05-24T01:27:37.168Z,97428.00
2018-05-24T01:30:04.752Z,97427.10
2018-05-24T01:32:32.289Z,97436.97
2018-05-24T01:34:59.809Z,97446.61
2018-05-24T01:37:39.255Z,97451.59
2018-05-24T01:40:06.796Z,97456.55
2018-05-24T01:42:34.344Z,97450.70
2018-05-24T01:45:01.922Z,97446.85
2018-05-24T01:47:29.481Z,97440.48
2018-05-24T01:49:57.059Z,97439.00
2018-05-24T01:52:25.003Z,97440.87
2018-05-24T01:54:52.529Z,97447.69
2018-05-24T01:57:20.062Z,97444.30
2018-05-24T01:59:47.617Z,97443.55
2018-05-24T02:02:15.150Z,97445.16
2018-05-24T02:04:42.741Z,97443.98
2018-05-24T02:07:10.272Z,97441.36
2018-05-24T02:09:38.003Z,97434.36
2018-05-24T02:12:05.529Z,97429.34
2018-05-24T02:14:33.048Z,97426.38
2018-05-24T02:17:00.601Z,97421.89
2018-05-24T02:19:28.167Z,97419.55
2018-05-24T02:21:55.718Z,97410.83
2018-05-24T02:24:23.237Z,97407.66
2018-05-24T02:26:50.817Z,97412.29
2018-05-24T02:29:18.365Z,97414.22
2018-05-24T02:31:45.894Z,97412.06
2018-05-24T02:34:13.457Z,97409.20
2018-05-24T02:36:40.991Z,97404.57
2018-05-24T02:39:08.552Z,97405.36
2018-05-24T02:41:36.083Z,97421.59
2018-05-24T02:44:03.654Z,97415.83
2018-05-24T02:46:31.179Z,97426.27
2018-05-24T02:48:58.707Z,97435.79
2018-05-24T02:51:26.270Z,97436.24
2018-05-24T02:53:53.793Z,97430.78
2018-05-24T02:56:21.365Z,97423.47
2018-05-24T02:58:48.897Z,97420.20
2018-05-24T03:01:16.752Z,97422.05
2018-05-24T03:03:44.276Z,97414.89
2018-05-24T03:06:11.799Z,97418.36
2018-05-24T03:08:39.365Z,97419.00
2018-05-24T03:11:06.892Z,97411.35
2018-05-24T03:13:34.452Z,97411.98
2018-05-24T03:16:01.977Z,97412.25
2018-05-24T03:18:29.879Z,97411.77
2018-05-24T03:20:57.408Z,97412.70
2018-05-24T03:23:24.947Z,97415.45
2018-05-24T03:25:52.501Z,97416.70
2018-05-24T03:28:20.028Z,97420.23
2018-05-24T03:30:47.577Z,97421.70
2018-05-24T03:33:15.117Z,97422.05
2018-05-24T03:35:42.896Z,97419.10
2018-05-24T03:38:10.419Z,97424.79
2018-05-24T03:40:37.946Z,97417.33
2018-05-24T03:43:05.501Z,97418.39
2018-05-24T03:45:33.016Z,97417.94
2018-05-24T03:48:00.564Z,97422.34
2018-05-24T03:50:28.097Z,97424.32
2018-05-24T03:52:55.753Z,97431.70
2018-05-24T03:55:23.289Z,97433.86
2018-05-24T03:57:50.877Z,97433.61
2018-05-24T04:00:30.340Z,97428.31
2018-05-24T04:03:10.017Z,97426.02
2018-05-24T04:05:37.610Z,97430.77
2018-05-24T04:08:05.073Z,97430.10
2018-05-24T04:10:32.638Z,97433.13
2018-05-24T04:13:00.576Z,97431.66
2018-05-24T04:15:28.953Z,97441.70
2018-05-24T04:17:56.484Z,97440.07
2018-05-24T04:20:24.057Z,97435.34
2018-05-24T04:22:51.588Z,97438.73
2018-05-24T04:25:19.179Z,97448.02
2018-05-24T04:27:46.748Z,97453.24
2018-05-24T04:30:14.261Z,97462.36
2018-05-24T04:32:41.816Z,97464.73
2018-05-24T04:35:09.340Z,97473.26
2018-05-24T04:37:37.071Z,97473.89
2018-05-24T04:40:04.601Z,97469.52
2018-05-24T04:42:32.133Z,97467.41
2018-05-24T04:44:59.752Z,97469.70
2018-05-24T04:47:27.281Z,97475.03
2018-05-24T04:49:54.848Z,97480.34
2018-05-24T04:52:22.369Z,97489.23
2018-05-24T04:54:50.097Z,97487.28
2018-05-24T04:57:17.633Z,97482.98
2018-05-24T04:59:45.163Z,97478.23
2018-05-24T05:02:12.713Z,97487.02
2018-05-24T05:04:40.227Z,97486.61
2018-05-24T05:07:07.772Z,97489.70
2018-05-24T05:09:35.325Z,97496.02
2018-05-24T05:12:02.902Z,97499.30
2018-05-24T05:14:30.424Z,97504.55
2018-05-24T05:16:57.949Z,97499.86
2018-05-24T05:19:25.585Z,97494.48
2018-05-24T05:21:53.052Z,97499.44
2018-05-24T05:24:20.681Z,97501.44
2018-05-24T05:26:48.200Z,97502.78
2018-05-24T05:29:15.917Z,97508.34
2018-05-24T05:31:43.545Z,97500.73
2018-05-24T05:34:11.064Z,97491.34
2018-05-24T05:36:38.692Z,97494.52
2018-05-24T05:39:06.233Z,97497.72
2018-05-24T05:41:33.780Z,97498.69
2018-05-24T05:44:01.305Z,97494.05
2018-05-24T05:46:29.060Z,97495.97
2018-05-24T05:48:56.598Z,97490.19
2018-05-24T05:51:24.127Z,97489.84
2018-05-24T05:53:51.680Z,97496.30
2018-05-24T05:56:19.224Z,97496.75
2018-05-24T05:58:46.778Z,97497.55
2018-05-24T06:01:14.305Z,97492.89
2018-05-24T06:03:42.025Z,97496.95
2018-05-24T06:06:09.544Z,97488.62
2018-05-24T06:08:37.093Z,97499.25
2018-05-24T06:11:04.644Z,97499.18
2018-05-24T06:13:32.165Z,97503.48
2018-05-24T06:15:59.720Z,97499.40
2018-05-24T06:18:27.248Z,97506.98
2018-05-24T06:20:54.801Z,97509.84
2018-05-24T06:23:22.336Z,97508.59
2018-05-24T06:25:49.865Z,97509.24
2018-05-24T06:28:17.420Z,97505.89
2018-05-24T06:30:44.945Z,97511.68
2018-05-24T06:33:12.518Z,97514.80
2018-05-24T06:35:40.045Z,97516.66
2018-05-24T06:38:07.795Z,97512.16
2018-05-24T06:40:35.414Z,97516.31
2018-05-24T06:43:02.866Z,97520.97
2018-05-24T06:45:30.420Z,97513.42
2018-05-24T06:47:57.959Z,97514.23
2018-05-24T06:50:25.514Z,97519.86
2018-05-24T06:52:53.036Z,97526.02
2018-05-24T06:55:20.808Z,97516.64
2018-05-24T06:57:48.384Z,97523.56
2018-05-24T07:00:15.912Z,97526.53
2018-05-24T07:02:43.476Z,97520.67
2018-05-24T07:05:11.006Z,97518.08
2018-05-24T07:07:38.570Z,97519.92
2018-05-24T07:10:06.121Z,97509.23
2018-05-24T07:12:33.694Z,97515.74
2018-05-24T07:15:01.224Z,97515.33
2018-05-24T07:17:28.749Z,97522.06
2018-05-24T07:19:56.301Z,97517.87
2018-05-24T07:22:23.852Z,97516.02
2018-05-24T07:24:51.424Z,97513.94
2018-05-24T07:27:18.952Z,97520.96
2018-05-24T07:29:46.526Z,97515.45
2018-05-24T07:32:14.048Z,97519.92
2018-05-24T07:34:41.581Z,97527.12
2018-05-24T07:37:09.137Z,97524.87
2018-05-24T07:39:36.748Z,97523.86
2018-05-24T07:42:04.250Z,97526.41
2018-05-24T07:44:31.777Z,97526.78
2018-05-24T07:46:59.361Z,97524.83
2018-05-24T07:49:26.880Z,97530.41
2018-05-24T07:51:54.445Z,97525.34
2018-05-24T07:54:22.023Z,97516.03
2018-05-24T07:56:49.546Z,97519.72
2018-05-24T07:59:17.098Z,97524.91
2018-05-24T08:01:44.679Z,97518.94
2018-05-24T08:04:12.691Z,97514.36
2018-05-24T08:06:40.249Z,97517.91
2018-05-24T08:09:07.760Z,97521.36
2018-05-24T08:11:35.314Z,97511.04
2018-05-24T08:14:02.856Z,97508.03
2018-05-24T08:16:30.420Z,97506.41
2018-05-24T08:18:57.944Z,97506.20
2018-05-24T08:21:25.740Z,97504.09
2018-05-24T08:23:53.277Z,97501.57
2018-05-24T08:26:21.750Z,97504.31
2018-05-24T08:28:50.259Z,97502.77
2018-05-24T08:31:17.785Z,97497.87
2018-05-24T08:33:45.349Z,97506.17
2018-05-24T08:36:12.876Z,97505.12
2018-05-24T08:38:40.449Z,97508.05
2018-05-24T08:41:07.976Z,97500.77
2018-05-24T08:43:35.501Z,97500.27
2018-05-24T08:46:03.056Z,97499.68
2018-05-24T08:48:30.583Z,97492.50
2018-05-24T08:50:58.182Z,97490.72
2018-05-24T08:53:26.295Z,97496.89
2018-05-24T08:55:54.185Z,97508.62
2018-05-24T08:58:21.719Z,97500.52
2018-05-24T09:00:49.252Z,97495.95
2018-05-24T09:03:17.290Z,97493.15
2018-05-24T09:05:44.824Z,97493.25
2018-05-24T09:08:12.412Z,97492.23
2018-05-24T09:10:39.939Z,97498.16
2018-05-24T09:13:07.467Z,97493.70
2018-05-24T09:15:35.594Z,97493.83
2018-05-24T09:18:03.116Z,97490.41
2018-05-24T09:20:30.947Z,97488.77
2018-05-24T09:22:58.453Z,97481.62
2018-05-24T09:25:26.449Z,97481.13
2018-05-24T09:27:54.001Z,97478.27
2018-05-24T09:30:21.534Z,97480.26
2018-05-24T09:32:49.113Z,97475.47
2018-05-24T09:35:16.640Z,97475.91
2018-05-24T09:37:44.172Z,97471.88
2018-05-24T09:40:11.724Z,97473.83
2018-05-24T09:42:39.252Z,97477.69
2018-05-24T09:45:07.013Z,97470.50
2018-05-24T09:47:34.536Z,97475.62
2018-05-24T09:50:02.057Z,97471.69
2018-05-24T09:52:30.117Z,97462.56
2018-05-24T09:54:57.650Z,97461.37
2018-05-24T09:57:25.207Z,97463.66
2018-05-24T09:59:52.737Z,97465.75
2018-05-24T10:02:23.248Z,97469.24
2018-05-24T10:04:51.825Z,97468.77
2018-05-24T10:07:24.329Z,97464.92
2018-05-24T10:09:51.880Z,97460.23
2018-05-24T10:12:19.411Z,97463.68
2018-05-24T10:14:50.322Z,97458.91
2018-05-24T10:17:17.895Z,97454.36
2018-05-24T10:19:45.421Z,97465.39
2018-05-24T10:22:12.972Z,97462.39
2018-05-24T10:24:40.492Z,97459.56
2018-05-24T10:27:08.060Z,97457.01
2018-05-24T10:29:35.576Z,97458.95
2018-05-24T10:32:03.656Z,97452.06
2018-05-24T10:34:31.177Z,97451.41
2018-05-24T10:36:58.700Z,97443.89
2018-05-24T10:39:28.821Z,97442.88
2018-05-24T10:41:56.349Z,97439.37
2018-05-24T10:44:23.902Z,97437.16
2018-05-24T10:46:51.441Z,97431.65
2018-05-24T10:49:19.008Z,97428.58
2018-05-24T10:51:46.545Z,97423.21
2018-05-24T10:54:14.134Z,97418.73
2018-05-24T10:56:47.298Z,97414.41
2018-05-24T10:59:14.808Z,97411.09
2018-05-24T11:01:42.360Z,97404.86
2018-05-24T11:04:09.880Z,97405.88
2018-05-24T11:06:38.292Z,97403.63
2018-05-24T11:09:06.584Z,97411.70
2018-05-24T11:11:34.670Z,97409.83
2018-05-24T11:14:02.617Z,97407.52
2018-05-24T11:16:30.149Z,97410.19
2018-05-24T11:18:57.701Z,97411.65
2018-05-24T11:21:25.252Z,97411.53
2018-05-24T11:23:52.821Z,97410.48
2018-05-24T11:26:20.359Z,97409.77
2018-05-24T11:28:47.884Z,97416.30
2018-05-24T11:31:15.437Z,97413.80
2018-05-24T11:33:42.964Z,97420.38
2018-05-24T11:36:10.549Z,97418.05
2018-05-24T11:38:38.068Z,97415.64
2018-05-24T11:41:05.648Z,97421.40
2018-05-24T11:43:33.160Z,97428.34
2018-05-24T11:46:00.684Z,97430.81
2018-05-24T11:48:28.244Z,97430.06
2018-05-24T11:50:55.999Z,97432.37
2018-05-24T11:53:23.561Z,97439.72
2018-05-24T11:55:51.089Z,97438.83
2018-05-24T11:58:18.906Z,97437.95
2018-05-24T12:00:46.429Z,97440.54
2018-05-24T12:03:13.953Z,97438.96
2018-05-24T12:05:41.511Z,97435.62
2018-05-24T12:08:09.033Z,97434.13
2018-05-24T12:10:36.586Z,97424.08
2018-05-24T12:13:04.477Z,97428.28
2018-05-24T12:15:32.470Z,97422.91
2018-05-24T12:18:00.009Z,97418.53
2018-05-24T12:20:27.640Z,97419.59
2018-05-24T12:22:55.186Z,97404.73
2018-05-24T12:25:22.700Z,97404.31
2018-05-24T12:27:50.252Z,97403.89
2018-05-24T12:30:17.768Z,97395.39
2018-05-24T12:32:45.516Z,97391.73
2018-05-24T12:35:13.041Z,97394.80
2018-05-24T12:37:40.568Z,97394.63
2018-05-24T12:40:08.113Z,97400.73
2018-05-24T12:42:35.638Z,97407.00
2018-05-24T12:45:03.193Z,97412.02
2018-05-24T12:47:30.717Z,97414.15
2018-05-24T12:49:58.294Z,97406.30
2018-05-24T12:52:25.810Z,97406.31
2018-05-24T12:54:53.370Z,97405.02
2018-05-24T12:57:20.913Z,97400.19
2018-05-24T12:59:48.443Z,97386.44
2018-05-24T13:02:15.993Z,97392.30
2018-05-24T13:04:43.513Z,97388.84
2018-05-24T13:07:11.294Z,97376.19
2018-05-24T13:09:38.844Z,97374.41
2018-05-24T13:12:06.368Z,97371.37
2018-05-24T13:14:33.916Z,97367.05
2018-05-24T13:17:01.519Z,97366.00
2018-05-24T13:19:29.000Z,97364.73
2018-05-24T13:21:56.523Z,97374.65
2018-05-24T13:24:24.132Z,97386.06
2018-05-24T13:26:51.622Z,97393.64
2018-05-24T13:29:19.149Z,97397.38
2018-05-24T13:31:46.697Z,97405.38
2018-05-24T13:34:14.222Z,97400.68
2018-05-24T13:36:41.788Z,97398.58
2018-05-24T13:39:09.313Z,97391.91
2018-05-24T13:41:36.883Z,97388.80
2018-05-24T13:44:04.408Z,97389.50
2018-05-24T13:46:31.941Z,97390.55
2018-05-24T13:48:59.501Z,97392.31
2018-05-24T13:51:27.036Z,97385.48
2018-05-24T13:53:54.668Z,97382.86
2018-05-24T13:56:22.184Z,97379.16
2018-05-24T13:58:49.996Z,97376.03
2018-05-24T14:01:17.525Z,97377.17
2018-05-24T14:03:45.048Z,97381.15
2018-05-24T14:06:12.607Z,97373.55
2018-05-24T14:08:40.122Z,97367.17
2018-05-24T14:11:07.677Z,97370.28
2018-05-24T14:13:35.256Z,97357.24
2018-05-24T14:16:03.251Z,97354.73
2018-05-24T14:18:30.834Z,97350.02
2018-05-24T14:20:58.363Z,97344.34
2018-05-24T14:23:25.916Z,97342.48
2018-05-24T14:25:53.785Z,97333.00
2018-05-24T14:28:21.378Z,97335.59
2018-05-24T14:30:48.911Z,97327.77
2018-05-24T14:33:16.640Z,97333.86
2018-05-24T14:35:44.159Z,97341.83
2018-05-24T14:38:12.707Z,97344.03
2018-05-24T14:40:40.265Z,97349.70
2018-05-24T14:43:08.133Z,97349.08
2018-05-24T14:45:35.918Z,97348.25
2018-05-24T14:48:03.455Z,97350.80
2018-05-24T14:50:31.028Z,97351.75
2018-05-24T14:52:58.573Z,97348.64
2018-05-24T14:55:26.249Z,97345.88
2018-05-24T14:57:53.889Z,97342.86
2018-05-24T15:00:22.209Z,97352.73
2018-05-24T15:02:49.853Z,97359.59
2018-05-24T15:05:17.385Z,97373.28
2018-05-24T15:07:45.349Z,97378.78
2018-05-24T15:10:13.086Z,97385.34
2018-05-24T15:12:41.791Z,97384.72
2018-05-24T15:15:09.476Z,97389.27
2018-05-24T15:17:37.310Z,97391.92
2018-05-24T15:20:04.912Z,97386.64
2018-05-24T15:22:32.630Z,97374.91
2018-05-24T15:25:02.846Z,97379.23
2018-05-24T15:27:31.711Z,97372.75
2018-05-24T15:29:59.329Z,97373.09
2018-05-24T15:32:26.892Z,97375.86
2018-05-24T15:34:54.445Z,97370.59
2018-05-24T15:37:22.083Z,97376.07
2018-05-24T15:39:49.625Z,97370.27
2018-05-24T15:42:17.442Z,97374.32
2018-05-24T15:44:44.982Z,97375.42
2018-05-24T15:47:12.585Z,97379.82
2018-05-24T15:49:40.192Z,97382.75
2018-05-24T15:52:07.718Z,97379.69
2018-05-24T15:54:35.492Z,97374.95
2018-05-24T15:57:03.001Z,97365.97
2018-05-24T15:59:30.565Z,97374.03
2018-05-24T16:01:58.100Z,97359.38
2018-05-24T16:04:25.629Z,97353.15
2018-05-24T16:06:53.191Z,97348.98
2018-05-24T16:09:20.731Z,97355.66
2018-05-24T16:11:48.289Z,97358.20
2018-05-24T16:14:15.812Z,97355.73
2018-05-24T16:16:43.377Z,97355.12
2018-05-24T16:19:10.902Z,97363.27
2018-05-24T16:21:38.428Z,97356.64
2018-05-24T16:24:05.989Z,97356.97
2018-05-24T16:26:33.614Z,97359.83
2018-05-24T16:29:01.220Z,97356.36
2018-05-24T16:31:28.909Z,97354.18
2018-05-24T16:33:56.702Z,97355.42
2018-05-24T16:36:24.361Z,97356.78
2018-05-24T16:38:51.904Z,97359.98
2018-05-24T16:41:19.457Z,97353.89
2018-05-24T16:43:46.985Z,97353.34
2018-05-24T16:46:14.685Z,97349.33
2018-05-24T16:48:42.345Z,97347.50
2018-05-24T16:51:11.219Z,97350.39
2018-05-24T16:53:38.796Z,97351.98
2018-05-24T16:56:06.389Z,97358.42
2018-05-24T16:58:33.940Z,97356.87
2018-05-24T17:01:01.497Z,97360.05
2018-05-24T17:03:29.242Z,97357.96
2018-05-24T17:05:56.782Z,97363.63
2018-05-24T17:08:24.315Z,97364.17
2018-05-24T17:10:52.352Z,97366.14
2018-05-24T17:13:19.889Z,97362.75
2018-05-24T17:15:47.488Z,97362.38
2018-05-24T17:18:15.335Z,97362.14
2018-05-24T17:20:42.993Z,97357.56
2018-05-24T17:23:10.546Z,97366.39
2018-05-24T17:25:38.215Z,97361.75
2018-05-24T17:28:05.889Z,97360.11
2018-05-24T17:30:33.419Z,97352.91
2018-05-24T17:33:00.943Z,97357.39
2018-05-24T17:35:28.845Z,97362.72
2018-05-24T17:37:56.615Z,97359.78
2018-05-24T17:40:25.004Z,97353.52
2018-05-24T17:42:52.577Z,97357.47
2018-05-24T17:45:20.328Z,97353.95
2018-05-24T17:47:48.194Z,97354.82
2018-05-24T17:50:15.956Z,97349.41
2018-05-24T17:52:44.091Z,97353.99
2018-05-24T17:55:11.640Z,97353.16
2018-05-24T17:57:39.761Z,97351.71
2018-05-24T18:00:07.631Z,97349.22
2018-05-24T18:02:36.126Z,97354.12
2018-05-24T18:05:03.877Z,97349.67
2018-05-24T18:07:31.565Z,97351.45
2018-05-24T18:09:59.506Z,97352.16
2018-05-24T18:12:27.372Z,97350.97
2018-05-24T18:14:55.247Z,97353.63
2018-05-24T18:17:23.003Z,97355.27
2018-05-24T18:19:50.867Z,97355.61
2018-05-24T18:22:18.608Z,97359.08
2018-05-24T18:24:46.499Z,97361.05
2018-05-24T18:27:14.399Z,97358.11
2018-05-24T18:29:42.235Z,97358.53
2018-05-24T18:32:10.230Z,97358.30
2018-05-24T18:34:38.550Z,97355.48
2018-05-24T18:37:06.448Z,97359.05
2018-05-24T18:39:34.287Z,97359.99
2018-05-24T18:42:01.831Z,97366.94
2018-05-24T18:44:29.444Z,97369.99
2018-05-24T18:46:57.165Z,97376.20
2018-05-24T18:49:24.961Z,97380.23
2018-05-24T18:51:52.727Z,97378.98
2018-05-24T18:54:20.593Z,97383.47
2018-05-24T18:56:48.421Z,97378.73
2018-05-24T18:59:16.193Z,97386.04
2018-05-24T19:01:44.192Z,97386.05
2018-05-24T19:04:12.450Z,97384.56
2018-05-24T19:06:40.233Z,97387.56
2018-05-24T19:09:07.987Z,97389.73
2018-05-24T19:11:35.965Z,97388.82
2018-05-24T19:14:03.935Z,97394.80
2018-05-24T19:16:31.804Z,97394.00
2018-05-24T19:18:59.770Z,97402.23
2018-05-24T19:21:27.743Z,97401.42
2018-05-24T19:23:55.710Z,97411.27
2018-05-24T19:26:23.532Z,97401.32
2018-05-24T19:28:51.338Z,97407.11
2018-05-24T19:31:19.665Z,97414.38
2018-05-24T19:33:48.507Z,97417.22
2018-05-24T19:36:16.328Z,97417.17
2018-05-24T19:38:44.239Z,97412.69
2018-05-24T19:41:12.209Z,97420.20
2018-05-24T19:43:40.159Z,97421.91
2018-05-24T19:46:12.198Z,97421.97
2018-05-24T19:48:40.187Z,97427.05
2018-05-24T19:51:08.078Z,97429.28
2018-05-24T19:53:36.562Z,97437.00
2018-05-24T19:56:04.426Z,97436.62
2018-05-24T19:58:32.608Z,97446.81
2018-05-24T20:01:01.288Z,97448.91
2018-05-24T20:03:29.552Z,97454.12
2018-05-24T20:05:57.940Z,97457.47
2018-05-24T20:08:25.773Z,97467.10
2018-05-24T20:10:53.722Z,97465.83
2018-05-24T20:13:21.571Z,97464.42
2018-05-24T20:15:49.509Z,97467.23
2018-05-24T20:18:17.468Z,97465.91
2018-05-24T20:20:45.553Z,97466.61
2018-05-24T20:23:13.415Z,97460.24
2018-05-24T20:25:41.182Z,97462.59
2018-05-24T20:28:08.949Z,97460.97
2018-05-24T20:30:36.814Z,97464.92
2018-05-24T20:33:05.292Z,97468.63
2018-05-24T20:35:33.275Z,97464.75
2018-05-24T20:38:01.539Z,97463.50
2018-05-24T20:40:30.095Z,97459.92
2018-05-24T20:42:57.883Z,97453.68
2018-05-24T20:45:26.990Z,97457.11
2018-05-24T20:47:54.748Z,97457.11
2018-05-24T20:50:22.719Z,97464.69
2018-05-24T20:52:50.561Z,97465.10
2018-05-24T20:55:18.650Z,97458.78
2018-05-24T20:57:47.031Z,97463.03
2018-05-24T21:00:14.895Z,97463.00
2018-05-24T21:02:42.633Z,97465.07
2018-05-24T21:05:10.218Z,97467.47
2018-05-24T21:07:38.197Z,97464.17
2018-05-24T21:10:06.211Z,97469.20
2018-05-24T21:12:34.330Z,97473.22
2018-05-24T21:15:02.113Z,97465.93
2018-05-24T21:17:29.961Z,97461.37
2018-05-24T21:19:57.849Z,97459.42
2018-05-24T21:22:25.797Z,97453.28
2018-05-24T21:24:54.587Z,97452.68
2018-05-24T21:27:22.246Z,97454.17
2018-05-24T21:29:50.113Z,97453.97
2018-05-24T21:32:17.878Z,97455.13
2018-05-24T21:34:46.260Z,97448.59
2018-05-24T21:37:14.016Z,97454.64
2018-05-24T21:39:41.682Z,97444.66
2018-05-24T21:42:09.339Z,97449.88
2018-05-24T21:44:37.109Z,97457.62
2018-05-24T21:47:04.977Z,97462.17
2018-05-24T21:49:32.525Z,97465.72
2018-05-24T21:52:00.082Z,97454.79
2018-05-24T21:54:27.755Z,97451.34
2018-05-24T21:56:55.277Z,97462.79
2018-05-24T21:59:22.832Z,97457.67
2018-05-24T22:01:50.354Z,97462.23
2018-05-24T22:04:17.924Z,97468.95
2018-05-24T22:06:45.439Z,97472.17
2018-05-24T22:09:12.974Z,97466.73
2018-05-24T22:11:40.520Z,97466.93
2018-05-24T22:14:08.057Z,97477.19
2018-05-24T22:16:35.689Z,97475.84
2018-05-24T22:19:03.238Z,97463.84
2018-05-24T22:21:30.809Z,97461.63
2018-05-24T22:23:58.353Z,97468.91
2018-05-24T22:26:25.876Z,97467.75
2018-05-24T22:28:53.428Z,97470.87
2018-05-24T22:31:20.950Z,97473.36
2018-05-24T22:33:48.508Z,97470.74
2018-05-24T22:36:16.028Z,97469.30
2018-05-24T22:38:43.917Z,97463.06
2018-05-24T22:41:11.448Z,97468.69
2018-05-24T22:43:38.981Z,97468.73
2018-05-24T22:46:06.541Z,97462.59
2018-05-24T22:48:34.086Z,97452.25
2018-05-24T22:51:01.645Z,97460.84
2018-05-24T22:53:29.200Z,97461.52
2018-05-24T22:55:56.783Z,97464.76
2018-05-24T22:58:25.217Z,97456.43
2018-05-24T23:00:52.743Z,97463.63
2018-05-24T23:03:20.332Z,97472.75
2018-05-24T23:05:47.876Z,97468.51
2018-05-24T23:08:15.425Z,97465.36
2018-05-24T23:10:42.957Z,97463.84
2018-05-24T23:13:10.773Z,97460.03
2018-05-24T23:15:38.301Z,97457.02
2018-05-24T23:18:05.828Z,97460.22
2018-05-24T23:20:33.385Z,97451.75
2018-05-24T23:23:00.928Z,97460.00
2018-05-24T23:25:28.484Z,97460.47
2018-05-24T23:27:56.004Z,97460.70
2018-05-24T23:30:23.896Z,97461.52
2018-05-24T23:32:51.440Z,97462.07
2018-05-24T23:35:18.960Z,97459.41
2018-05-24T23:37:46.509Z,97467.77
2018-05-24T23:40:14.027Z,97462.25
2018-05-24T23:42:41.604Z,97467.98
2018-05-24T23:45:09.128Z,97463.41
2018-05-24T23:47:36.796Z,97466.41
2018-05-24T23:50:04.686Z,97461.56
2018-05-24T23:52:32.214Z,97465.81
2018-05-24T23:54:59.764Z,97465.17
2018-05-24T23:57:27.303Z,97463.58
2018-05-24T23:59:54.851Z,97468.04
